createdAt,value
2023-01-21T00:00:56.286Z,28.13
2023-01-21T00:03:23.582Z,23.80
2023-01-21T00:05:50.744Z,25.88
2023-01-21T00:08:17.862Z,27.70
2023-01-21T00:10:45.074Z,28.45
2023-01-21T00:13:12.266Z,27.48
2023-01-21T00:15:39.628Z,26.45
2023-01-21T00:18:06.901Z,29.27
2023-01-21T00:20:34.186Z,29.63
2023-01-21T00:23:01.547Z,30.48
2023-01-21T00:25:28.815Z,31.92
2023-01-21T00:27:56.069Z,27.88
2023-01-21T00:30:23.494Z,30.45
2023-01-21T00:32:50.604Z,23.27
2023-01-21T00:35:17.698Z,24.10
2023-01-21T00:37:44.782Z,27.05
2023-01-21T00:40:12.376Z,26.42
2023-01-21T00:42:39.534Z,33.13
2023-01-21T00:45:06.968Z,30.95
2023-01-21T00:47:34.042Z,29.15
2023-01-21T00:50:01.144Z,24.48
2023-01-21T00:52:28.340Z,23.40
2023-01-21T00:54:55.564Z,29.27
2023-01-21T00:57:22.845Z,25.95
2023-01-21T00:59:50.133Z,35.50
2023-01-21T01:02:17.406Z,31.85
2023-01-21T01:04:44.616Z,35.00
2023-01-21T01:07:11.958Z,42.03
2023-01-21T01:09:39.133Z,38.17
2023-01-21T01:12:06.611Z,40.28
2023-01-21T01:14:33.808Z,47.17
2023-01-21T01:17:00.918Z,38.15
2023-01-21T01:19:28.169Z,40.60
2023-01-21T01:21:55.270Z,44.60
2023-01-21T01:24:22.397Z,44.05
2023-01-21T01:26:50.606Z,40.78
2023-01-21T01:29:18.620Z,43.85
2023-01-21T01:31:45.885Z,47.40
2023-01-21T01:34:13.054Z,42.13
2023-01-21T01:36:40.224Z,40.15
2023-01-21T01:39:07.679Z,42.13
2023-01-21T01:41:35.466Z,33.47
2023-01-21T01:44:06.791Z,39.20
2023-01-21T01:46:35.176Z,41.20
2023-01-21T01:49:17.690Z,42.30
2023-01-21T01:51:51.000Z,45.40
2023-01-21T01:54:23.544Z,43.13
2023-01-21T01:56:51.725Z,37.65
2023-01-21T01:59:19.696Z,48.05
2023-01-21T02:01:47.127Z,46.13
2023-01-21T02:04:18.072Z,45.47
2023-01-21T02:06:45.479Z,42.80
2023-01-21T02:09:12.617Z,46.72
2023-01-21T02:11:39.973Z,36.00
2023-01-21T02:14:07.175Z,39.03
2023-01-21T02:16:40.143Z,43.72
2023-01-21T02:19:25.822Z,44.92
2023-01-21T02:21:52.885Z,45.20
2023-01-21T02:24:22.744Z,43.45
2023-01-21T02:26:58.489Z,41.15
2023-01-21T02:29:28.725Z,38.03
2023-01-21T02:31:55.860Z,42.10
2023-01-21T02:34:46.229Z,38.17
2023-01-21T02:37:15.298Z,40.13
2023-01-21T02:39:55.004Z,36.33
2023-01-21T02:42:40.803Z,37.97
2023-01-21T02:45:16.981Z,39.67
2023-01-21T02:47:44.021Z,34.53
2023-01-21T02:50:20.593Z,41.10
2023-01-21T02:52:55.497Z,34.80
2023-01-21T02:55:24.633Z,39.05
2023-01-21T02:57:53.937Z,44.97
2023-01-21T03:00:23.746Z,39.88
2023-01-21T03:03:02.893Z,44.30
2023-01-21T03:05:35.391Z,39.67
2023-01-21T03:08:22.461Z,43.75
2023-01-21T03:10:53.328Z,40.92
2023-01-21T03:14:02.039Z,35.90
2023-01-21T03:16:50.530Z,50.10
2023-01-21T03:19:18.495Z,41.20
2023-01-21T03:21:46.867Z,32.50
2023-01-21T03:24:15.121Z,37.15
2023-01-21T03:26:47.089Z,39.60
2023-01-21T03:29:15.770Z,32.55
2023-01-21T03:31:44.825Z,39.00
2023-01-21T03:34:13.516Z,34.97
2023-01-21T03:36:46.430Z,40.28
2023-01-21T03:39:38.396Z,37.75
2023-01-21T03:42:05.773Z,42.72
2023-01-21T03:44:32.908Z,33.28
2023-01-21T03:47:03.729Z,33.83
2023-01-21T03:49:42.056Z,39.97
2023-01-21T03:52:09.801Z,38.22
2023-01-21T03:54:37.345Z,41.85
2023-01-21T03:57:04.551Z,41.80
2023-01-21T03:59:31.690Z,35.42
2023-01-21T04:01:58.856Z,42.65
2023-01-21T04:04:26.029Z,41.80
2023-01-21T04:06:53.244Z,39.65
2023-01-21T04:09:20.393Z,40.17
2023-01-21T04:11:47.449Z,36.97
2023-01-21T04:14:14.541Z,38.63
2023-01-21T04:16:41.835Z,41.20
2023-01-21T04:19:09.015Z,42.28
2023-01-21T04:21:36.185Z,42.47
2023-01-21T04:24:03.260Z,45.03
2023-01-21T04:26:30.357Z,39.60
2023-01-21T04:28:57.460Z,48.75
2023-01-21T04:31:24.625Z,40.92
2023-01-21T04:33:51.723Z,45.53
2023-01-21T04:36:19.021Z,39.13
2023-01-21T04:38:46.473Z,42.50
2023-01-21T04:41:13.625Z,41.17
2023-01-21T04:43:40.675Z,39.33
2023-01-21T04:46:07.832Z,33.58
2023-01-21T04:48:34.946Z,43.55
2023-01-21T04:51:02.175Z,40.85
2023-01-21T04:53:29.704Z,39.58
2023-01-21T04:55:56.785Z,37.25
2023-01-21T04:58:24.028Z,35.97
2023-01-21T05:00:51.950Z,45.17
2023-01-21T05:03:19.073Z,35.80
2023-01-21T05:05:46.135Z,39.05
2023-01-21T05:08:13.214Z,33.03
2023-01-21T05:10:40.524Z,32.30
2023-01-21T05:13:07.670Z,36.03
2023-01-21T05:15:34.871Z,41.05
2023-01-21T05:18:02.077Z,39.10
2023-01-21T05:20:29.245Z,41.10
2023-01-21T05:22:56.446Z,34.75
2023-01-21T05:25:23.635Z,39.90
2023-01-21T05:27:54.699Z,39.85
2023-01-21T05:30:22.301Z,36.55
2023-01-21T05:32:53.262Z,31.77
2023-01-21T05:35:24.527Z,34.95
2023-01-21T05:37:51.644Z,29.05
2023-01-21T05:40:19.447Z,30.75
2023-01-21T05:42:47.219Z,33.30
2023-01-21T05:45:14.396Z,34.42
2023-01-21T05:47:41.697Z,34.53
2023-01-21T05:50:09.309Z,35.08
2023-01-21T05:52:36.585Z,26.38
2023-01-21T05:55:03.782Z,32.05
2023-01-21T05:57:31.500Z,26.23
2023-01-21T05:59:58.950Z,35.60
2023-01-21T06:02:26.085Z,30.25
2023-01-21T06:04:53.271Z,30.70
2023-01-21T06:07:20.475Z,33.13
2023-01-21T06:09:47.695Z,29.42
2023-01-21T06:12:14.777Z,29.88
2023-01-21T06:14:42.059Z,30.48
2023-01-21T06:17:09.182Z,27.85
2023-01-21T06:19:36.347Z,30.80
2023-01-21T06:22:03.403Z,36.20
2023-01-21T06:24:30.505Z,36.70
2023-01-21T06:26:57.632Z,36.17
2023-01-21T06:29:24.794Z,37.72
2023-01-21T06:31:51.986Z,30.30
2023-01-21T06:34:19.309Z,36.03
2023-01-21T06:36:46.458Z,28.85
2023-01-21T06:39:13.521Z,23.10
2023-01-21T06:41:40.817Z,29.27
2023-01-21T06:44:08.159Z,35.78
2023-01-21T06:46:35.419Z,32.65
2023-01-21T06:49:02.655Z,28.83
2023-01-21T06:51:29.757Z,29.67
2023-01-21T06:53:56.861Z,36.38
2023-01-21T06:56:24.841Z,34.28
2023-01-21T06:58:52.011Z,24.58
2023-01-21T07:01:19.175Z,26.70
2023-01-21T07:03:46.502Z,27.42
2023-01-21T07:06:13.636Z,25.27
2023-01-21T07:08:40.817Z,29.60
2023-01-21T07:11:08.047Z,26.08
2023-01-21T07:13:35.177Z,27.65
2023-01-21T07:16:03.201Z,23.65
2023-01-21T07:18:31.174Z,20.33
2023-01-21T07:20:58.466Z,27.20
2023-01-21T07:23:25.788Z,27.25
2023-01-21T07:25:52.948Z,29.15
2023-01-21T07:28:20.241Z,20.23
2023-01-21T07:30:47.425Z,34.80
2023-01-21T07:33:15.249Z,24.73
2023-01-21T07:35:42.433Z,31.77
2023-01-21T07:38:09.690Z,29.35
2023-01-21T07:40:36.822Z,32.40
2023-01-21T07:43:04.157Z,35.13
2023-01-21T07:45:31.376Z,37.35
2023-01-21T07:47:59.130Z,37.97
2023-01-21T07:50:26.373Z,28.70
2023-01-21T07:52:54.780Z,29.80
2023-01-21T07:55:22.396Z,35.38
2023-01-21T07:57:49.548Z,27.27
2023-01-21T08:00:16.848Z,26.38
2023-01-21T08:02:44.082Z,27.98
2023-01-21T08:05:11.276Z,26.48
2023-01-21T08:07:38.396Z,35.53
2023-01-21T08:10:05.705Z,29.38
2023-01-21T08:12:32.858Z,33.90
2023-01-21T08:15:00.004Z,29.75
2023-01-21T08:17:27.314Z,33.42
2023-01-21T08:19:54.483Z,31.08
2023-01-21T08:22:21.628Z,36.40
2023-01-21T08:24:48.783Z,32.17
2023-01-21T08:27:15.940Z,33.30
2023-01-21T08:29:43.056Z,32.80
2023-01-21T08:32:10.155Z,29.02
2023-01-21T08:34:37.320Z,38.50
2023-01-21T08:37:04.487Z,35.95
2023-01-21T08:39:31.600Z,35.53
2023-01-21T08:41:58.790Z,38.67
2023-01-21T08:44:25.945Z,34.30
2023-01-21T08:46:53.242Z,26.70
2023-01-21T08:49:22.579Z,33.80
2023-01-21T08:51:50.266Z,24.75
2023-01-21T08:54:17.408Z,31.98
2023-01-21T08:56:44.569Z,32.88
2023-01-21T08:59:11.935Z,26.08
2023-01-21T09:01:41.106Z,33.28
2023-01-21T09:04:08.376Z,31.13
2023-01-21T09:06:35.572Z,78.72
2023-01-21T09:09:02.841Z,41.28
2023-01-21T09:11:30.397Z,27.00
2023-01-21T09:14:03.188Z,28.58
2023-01-21T09:16:31.716Z,29.00
2023-01-21T09:18:59.327Z,31.67
2023-01-21T09:21:27.533Z,32.67
2023-01-21T09:23:54.738Z,25.33
2023-01-21T09:26:22.934Z,30.70
2023-01-21T09:28:54.500Z,28.73
2023-01-21T09:31:23.380Z,27.38
2023-01-21T09:33:52.286Z,24.92
2023-01-21T09:36:23.942Z,28.05
2023-01-21T09:38:51.613Z,27.00
2023-01-21T09:41:18.620Z,24.40
2023-01-21T09:44:11.919Z,30.00
2023-01-21T09:46:39.304Z,27.73
2023-01-21T09:49:07.408Z,26.15
2023-01-21T09:51:52.778Z,21.83
2023-01-21T09:54:27.860Z,25.40
2023-01-21T09:57:10.451Z,29.60
2023-01-21T09:59:44.168Z,28.17
2023-01-21T10:02:34.266Z,23.83
2023-01-21T10:05:07.255Z,24.30
2023-01-21T10:07:35.425Z,25.63
2023-01-21T10:10:10.801Z,26.77
2023-01-21T10:12:37.845Z,26.63
2023-01-21T10:15:20.018Z,27.40
2023-01-21T10:18:04.362Z,26.08
2023-01-21T10:20:38.711Z,24.77
2023-01-21T10:23:29.070Z,27.83
2023-01-21T10:25:57.374Z,29.90
2023-01-21T10:28:26.567Z,27.75
2023-01-21T10:30:55.129Z,23.85
2023-01-21T10:33:24.241Z,23.45
2023-01-21T10:36:00.409Z,29.08
2023-01-21T10:38:43.714Z,25.88
2023-01-21T10:41:29.402Z,26.75
2023-01-21T10:43:56.526Z,24.30
2023-01-21T10:46:28.868Z,23.45
2023-01-21T10:48:55.985Z,22.77
2023-01-21T10:51:45.520Z,23.75
2023-01-21T10:54:22.643Z,22.38
2023-01-21T10:56:57.025Z,19.00
2023-01-21T10:59:26.976Z,25.60
2023-01-21T11:02:10.648Z,25.08
2023-01-21T11:04:38.023Z,21.88
2023-01-21T11:07:06.243Z,26.33
2023-01-21T11:09:35.626Z,23.83
2023-01-21T11:12:03.210Z,23.65
2023-01-21T11:14:30.497Z,26.23
2023-01-21T11:16:58.300Z,25.10
2023-01-21T11:19:26.616Z,22.25
2023-01-21T11:22:12.383Z,21.50
2023-01-21T11:24:44.032Z,26.33
2023-01-21T11:27:19.824Z,21.90
2023-01-21T11:29:48.775Z,25.13
2023-01-21T11:32:21.169Z,24.08
2023-01-21T11:34:49.365Z,21.60
2023-01-21T11:37:24.721Z,22.65
2023-01-21T11:40:12.076Z,22.85
2023-01-21T11:42:47.833Z,23.58
2023-01-21T11:45:28.279Z,39.08
2023-01-21T11:47:55.481Z,27.40
2023-01-21T11:50:39.381Z,23.52
2023-01-21T11:53:11.255Z,22.50
2023-01-21T11:55:41.152Z,25.42
2023-01-21T11:58:18.257Z,18.23
2023-01-21T12:00:46.626Z,20.00
2023-01-21T12:03:17.123Z,18.60
2023-01-21T12:05:48.707Z,20.67
2023-01-21T12:08:23.100Z,20.50
2023-01-21T12:10:51.417Z,27.63
2023-01-21T12:13:26.751Z,35.28
2023-01-21T12:15:53.879Z,32.15
2023-01-21T12:18:20.961Z,24.33
2023-01-21T12:21:26.773Z,22.98
2023-01-21T12:24:03.161Z,22.63
2023-01-21T12:26:46.706Z,23.42
2023-01-21T12:29:22.752Z,24.55
2023-01-21T12:31:59.773Z,24.58
2023-01-21T12:34:34.206Z,23.02
2023-01-21T12:37:04.250Z,27.75
2023-01-21T12:39:37.165Z,27.33
2023-01-21T12:42:10.409Z,26.38
2023-01-21T12:44:40.500Z,26.00
2023-01-21T12:47:12.199Z,21.45
2023-01-21T12:49:59.586Z,21.00
2023-01-21T12:52:32.785Z,23.83
2023-01-21T12:55:05.730Z,21.98
2023-01-21T12:57:42.536Z,22.35
2023-01-21T13:00:12.485Z,25.83
2023-01-21T13:02:44.388Z,23.95
2023-01-21T13:05:18.797Z,19.05
2023-01-21T13:08:14.522Z,22.48
2023-01-21T13:10:43.614Z,20.55
2023-01-21T13:13:26.243Z,18.90
2023-01-21T13:15:55.878Z,15.43
2023-01-21T13:18:31.204Z,17.35
2023-01-21T13:21:00.631Z,14.15
2023-01-21T13:23:46.787Z,18.00
2023-01-21T13:26:19.933Z,14.98
2023-01-21T13:28:51.920Z,19.63
2023-01-21T13:31:21.977Z,17.48
2023-01-21T13:33:58.320Z,15.27
2023-01-21T13:36:48.016Z,18.15
2023-01-21T13:39:20.097Z,15.13
2023-01-21T13:44:14.163Z,15.07
2023-01-21T13:46:55.093Z,16.40
2023-01-21T13:49:41.217Z,15.43
2023-01-21T13:52:08.346Z,12.95
2023-01-21T13:54:43.266Z,12.02
2023-01-21T13:57:26.017Z,12.02
2023-01-21T14:00:01.087Z,10.57
2023-01-21T14:02:31.183Z,12.20
2023-01-21T14:05:24.547Z,11.45
2023-01-21T14:07:54.630Z,9.00
2023-01-21T14:10:27.544Z,11.98
2023-01-21T14:12:57.752Z,10.85
2023-01-21T14:15:27.722Z,12.88
2023-01-21T14:17:54.851Z,10.40
2023-01-21T14:20:31.313Z,8.90
2023-01-21T14:23:04.324Z,7.90
2023-01-21T14:25:51.660Z,11.25
2023-01-21T14:28:34.181Z,6.18
2023-01-21T14:31:07.761Z,8.45
2023-01-21T14:33:55.269Z,7.18
2023-01-21T14:36:22.331Z,7.40
2023-01-21T14:39:01.953Z,10.25
2023-01-21T14:41:48.056Z,6.38
2023-01-21T14:44:34.061Z,7.85
2023-01-21T14:47:18.226Z,10.93
2023-01-21T14:49:49.347Z,9.20
2023-01-21T14:52:20.868Z,9.20
2023-01-21T14:54:48.653Z,7.25
2023-01-21T14:57:24.769Z,6.22
2023-01-21T14:59:53.116Z,7.03
2023-01-21T15:02:20.469Z,9.10
2023-01-21T15:05:01.485Z,7.63
2023-01-21T15:07:30.432Z,9.15
2023-01-21T15:09:59.482Z,10.63
2023-01-21T15:12:29.133Z,8.00
2023-01-21T15:14:58.104Z,10.02
2023-01-21T15:17:44.044Z,8.70
2023-01-21T15:20:30.053Z,7.97
2023-01-21T15:23:18.946Z,10.13
2023-01-21T15:26:04.776Z,9.10
2023-01-21T15:28:45.777Z,7.72
2023-01-21T15:31:14.602Z,9.60
2023-01-21T15:33:51.091Z,8.65
2023-01-21T15:36:24.800Z,10.45
2023-01-21T15:38:53.468Z,9.02
2023-01-21T15:41:28.840Z,14.52
2023-01-21T15:44:07.988Z,8.80
2023-01-21T15:46:44.209Z,14.32
2023-01-21T15:49:31.415Z,10.45
2023-01-21T15:51:58.451Z,11.60
2023-01-21T15:54:31.608Z,12.80
2023-01-21T15:57:28.230Z,15.65
2023-01-21T16:00:18.420Z,14.15
2023-01-21T16:02:53.094Z,12.02
2023-01-21T16:05:24.256Z,14.48
2023-01-21T16:07:51.309Z,14.47
2023-01-21T16:10:27.501Z,15.82
2023-01-21T16:12:54.728Z,15.70
2023-01-21T16:15:40.287Z,14.70
2023-01-21T16:18:11.935Z,12.88
2023-01-21T16:20:43.084Z,16.77
2023-01-21T16:23:10.454Z,20.53
2023-01-21T16:25:45.614Z,20.33
2023-01-21T16:28:12.748Z,21.33
2023-01-21T16:30:39.881Z,17.58
2023-01-21T16:33:08.960Z,18.85
2023-01-21T16:35:43.304Z,20.35
2023-01-21T16:38:14.576Z,18.98
2023-01-21T16:40:41.721Z,15.52
2023-01-21T16:43:18.503Z,17.05
2023-01-21T16:45:52.874Z,19.75
2023-01-21T16:48:21.910Z,20.58
2023-01-21T16:50:49.329Z,16.45
2023-01-21T16:53:18.032Z,17.60
2023-01-21T16:55:46.308Z,16.10
2023-01-21T16:58:22.290Z,17.23
2023-01-21T17:01:05.969Z,16.80
2023-01-21T17:03:33.457Z,20.52
2023-01-21T17:06:02.977Z,22.88
2023-01-21T17:08:30.253Z,18.48
2023-01-21T17:10:57.776Z,16.45
2023-01-21T17:13:25.467Z,16.98
2023-01-21T17:16:00.779Z,14.38
2023-01-21T17:18:32.481Z,16.83
2023-01-21T17:21:02.093Z,17.52
2023-01-21T17:23:30.854Z,17.65
2023-01-21T17:26:03.757Z,21.42
2023-01-21T17:28:53.446Z,16.90
2023-01-21T17:31:27.771Z,14.52
2023-01-21T17:34:04.407Z,22.08
2023-01-21T17:36:36.752Z,16.10
2023-01-21T17:39:05.437Z,21.48
2023-01-21T17:41:34.515Z,20.00
2023-01-21T17:44:03.322Z,20.30
2023-01-21T17:46:31.000Z,22.80
2023-01-21T17:49:05.856Z,20.27
2023-01-21T17:51:33.283Z,19.75
2023-01-21T17:54:02.058Z,25.55
2023-01-21T17:56:42.898Z,20.38
2023-01-21T17:59:28.965Z,22.85
2023-01-21T18:01:56.345Z,13.88
2023-01-21T18:04:23.601Z,18.05
2023-01-21T18:06:52.104Z,18.98
2023-01-21T18:09:20.697Z,17.40
2023-01-21T18:11:48.430Z,14.75
2023-01-21T18:14:19.904Z,18.15
2023-01-21T18:16:47.875Z,19.45
2023-01-21T18:19:30.272Z,15.70
2023-01-21T18:21:57.636Z,16.25
2023-01-21T18:24:25.554Z,14.23
2023-01-21T18:26:53.379Z,13.13
2023-01-21T18:29:21.857Z,16.92
2023-01-21T18:31:52.283Z,14.30
2023-01-21T18:34:19.530Z,13.80
2023-01-21T18:36:46.783Z,13.38
2023-01-21T18:39:14.977Z,14.70
2023-01-21T18:41:42.203Z,16.13
2023-01-21T18:44:09.567Z,17.30
2023-01-21T18:46:43.978Z,15.85
2023-01-21T18:49:13.525Z,12.35
2023-01-21T18:51:40.661Z,13.05
2023-01-21T18:54:07.923Z,15.43
2023-01-21T18:56:36.107Z,14.38
2023-01-21T18:59:03.500Z,18.38
2023-01-21T19:01:30.828Z,15.02
2023-01-21T19:03:58.073Z,20.17
2023-01-21T19:06:25.286Z,19.83
2023-01-21T19:08:52.492Z,18.80
2023-01-21T19:11:19.691Z,21.27
2023-01-21T19:13:46.911Z,18.08
2023-01-21T19:16:16.609Z,22.48
2023-01-21T19:18:43.905Z,21.00
2023-01-21T19:21:11.269Z,26.10
2023-01-21T19:23:40.066Z,23.77
2023-01-21T19:26:07.387Z,17.77
2023-01-21T19:28:34.994Z,25.27
2023-01-21T19:31:02.347Z,22.40
2023-01-21T19:33:31.753Z,22.05
2023-01-21T19:36:00.985Z,18.50
2023-01-21T19:38:28.633Z,23.23
2023-01-21T19:40:56.405Z,26.83
2023-01-21T19:43:23.869Z,16.33
2023-01-21T19:45:51.803Z,23.48
2023-01-21T19:48:19.895Z,15.95
2023-01-21T19:50:47.194Z,20.45
2023-01-21T19:53:18.240Z,23.17
2023-01-21T19:55:46.755Z,19.90
2023-01-21T19:58:19.725Z,22.30
2023-01-21T20:00:49.190Z,18.38
2023-01-21T20:03:17.855Z,20.17
2023-01-21T20:05:45.563Z,20.55
2023-01-21T20:08:14.226Z,20.08
2023-01-21T20:10:41.451Z,22.60
2023-01-21T20:13:12.448Z,19.30
2023-01-21T20:15:39.678Z,15.48
2023-01-21T20:18:07.461Z,14.65
2023-01-21T20:20:34.659Z,15.63
2023-01-21T20:23:02.258Z,17.27
2023-01-21T20:25:36.782Z,16.10
2023-01-21T20:28:07.519Z,14.27
2023-01-21T20:30:34.747Z,17.92
2023-01-21T20:33:02.987Z,19.45
2023-01-21T20:35:30.219Z,16.98
2023-01-21T20:37:58.867Z,10.70
2023-01-21T20:40:27.788Z,15.80
2023-01-21T20:42:55.886Z,16.77
2023-01-21T20:45:24.716Z,16.65
2023-01-21T20:47:53.996Z,16.73
2023-01-21T20:50:22.383Z,18.30
2023-01-21T20:52:50.351Z,16.83
2023-01-21T20:55:20.911Z,15.90
2023-01-21T20:57:48.520Z,16.33
2023-01-21T21:00:26.451Z,16.52
2023-01-21T21:02:55.588Z,19.70
2023-01-21T21:05:23.945Z,14.30
2023-01-21T21:07:51.165Z,19.48
2023-01-21T21:10:31.501Z,14.10
2023-01-21T21:12:58.931Z,17.52
2023-01-21T21:15:33.985Z,17.10
2023-01-21T21:18:01.568Z,17.73
2023-01-21T21:20:30.818Z,18.27
2023-01-21T21:22:57.969Z,18.30
2023-01-21T21:25:28.946Z,16.15
2023-01-21T21:27:56.701Z,14.68
2023-01-21T21:30:28.269Z,18.00
2023-01-21T21:32:59.222Z,26.00
2023-01-21T21:35:35.137Z,21.67
2023-01-21T21:38:06.645Z,22.20
2023-01-21T21:40:35.799Z,23.10
2023-01-21T21:43:21.662Z,20.23
2023-01-21T21:46:07.462Z,21.67
2023-01-21T21:48:46.118Z,20.42
2023-01-21T21:51:14.399Z,19.50
2023-01-21T21:53:42.143Z,22.15
2023-01-21T21:56:10.935Z,15.35
2023-01-21T21:58:38.280Z,22.75
2023-01-21T22:01:13.348Z,21.02
2023-01-21T22:03:40.988Z,17.60
2023-01-21T22:06:08.510Z,18.00
2023-01-21T22:08:36.865Z,16.67
2023-01-21T22:11:05.585Z,18.77
2023-01-21T22:13:34.632Z,19.13
2023-01-21T22:16:02.193Z,24.10
2023-01-21T22:18:30.838Z,21.25
2023-01-21T22:21:01.954Z,17.27
2023-01-21T22:23:32.831Z,20.13
2023-01-21T22:26:01.429Z,21.48
2023-01-21T22:28:28.810Z,19.70
2023-01-21T22:30:56.287Z,24.67
2023-01-21T22:33:23.472Z,27.00
2023-01-21T22:35:50.690Z,22.85
2023-01-21T22:38:17.912Z,24.30
2023-01-21T22:40:45.078Z,21.05
2023-01-21T22:43:12.230Z,24.83
2023-01-21T22:45:40.764Z,21.77
2023-01-21T22:48:07.911Z,24.20
2023-01-21T22:50:35.029Z,22.92
2023-01-21T22:53:02.142Z,25.33
2023-01-21T22:55:29.254Z,19.38
2023-01-21T22:57:56.375Z,19.25
2023-01-21T23:00:40.088Z,21.27
2023-01-21T23:03:07.952Z,21.70
2023-01-21T23:05:35.910Z,17.52
2023-01-21T23:08:03.121Z,15.95
2023-01-21T23:10:30.385Z,22.92
2023-01-21T23:12:57.547Z,22.92
2023-01-21T23:15:24.754Z,23.38
2023-01-21T23:17:55.071Z,22.80
2023-01-21T23:20:22.228Z,17.50
2023-01-21T23:22:49.425Z,19.25
2023-01-21T23:25:16.584Z,26.75
2023-01-21T23:27:43.725Z,23.23
2023-01-21T23:30:11.216Z,20.02
2023-01-21T23:32:38.287Z,20.58
2023-01-21T23:35:06.037Z,16.27
2023-01-21T23:37:33.201Z,19.55
2023-01-21T23:40:00.348Z,21.60
2023-01-21T23:42:27.476Z,17.35
2023-01-21T23:44:54.568Z,19.88
2023-01-21T23:47:21.728Z,18.77
2023-01-21T23:49:48.847Z,17.70
2023-01-21T23:52:16.002Z,17.98
2023-01-21T23:54:43.728Z,20.80
2023-01-21T23:57:11.282Z,19.17
2023-01-21T23:59:38.864Z,20.40
